createdAt,value
2018-03-02T00:01:30.840Z,57.22
2018-03-02T00:03:57.062Z,46.35
2018-03-02T00:06:23.249Z,49.17
2018-03-02T00:08:49.548Z,40.12
2018-03-02T00:11:16.477Z,41.97
2018-03-02T00:13:43.003Z,48.80
2018-03-02T00:16:09.170Z,50.28
2018-03-02T00:18:35.367Z,41.13
2018-03-02T00:21:01.643Z,41.20
2018-03-02T00:23:27.808Z,49.53
2018-03-02T00:25:54.013Z,43.92
2018-03-02T00:28:20.924Z,51.17
2018-03-02T00:30:47.223Z,39.15
2018-03-02T00:33:13.447Z,48.38
2018-03-02T00:35:39.650Z,47.95
2018-03-02T00:38:05.883Z,45.33
2018-03-02T00:40:33.494Z,44.05
2018-03-02T00:42:59.729Z,43.80
2018-03-02T00:45:25.903Z,40.30
2018-03-02T00:47:52.904Z,44.40
2018-03-02T00:50:19.111Z,62.75
2018-03-02T00:52:45.338Z,51.65
2018-03-02T00:55:11.522Z,46.28
2018-03-02T00:57:38.476Z,43.30
2018-03-02T01:00:05.440Z,47.03
2018-03-02T01:02:31.669Z,44.55
2018-03-02T01:04:57.908Z,44.20
2018-03-02T01:07:24.191Z,43.03
2018-03-02T01:09:50.386Z,46.00
2018-03-02T01:12:16.642Z,49.40
2018-03-02T01:14:42.970Z,48.85
2018-03-02T01:17:09.193Z,52.53
2018-03-02T01:19:35.383Z,48.78
2018-03-02T01:22:01.645Z,47.85
2018-03-02T01:24:27.858Z,52.50
2018-03-02T01:26:54.074Z,44.67
2018-03-02T01:29:20.332Z,46.88
2018-03-02T01:31:47.335Z,46.15
2018-03-02T01:34:14.268Z,45.08
2018-03-02T01:36:41.259Z,43.50
2018-03-02T01:39:07.561Z,49.35
2018-03-02T01:41:33.798Z,43.90
2018-03-02T01:44:00.030Z,41.85
2018-03-02T01:46:26.186Z,44.10
2018-03-02T01:48:52.444Z,45.65
2018-03-02T01:51:30.836Z,40.45
2018-03-02T01:53:57.180Z,51.28
2018-03-02T01:56:23.371Z,46.17
2018-03-02T01:58:49.552Z,47.80
2018-03-02T02:01:16.538Z,38.67
2018-03-02T02:03:42.768Z,45.67
2018-03-02T02:06:09.028Z,48.95
2018-03-02T02:08:35.206Z,47.38
2018-03-02T02:11:02.178Z,50.42
2018-03-02T02:13:28.910Z,44.90
2018-03-02T02:15:55.165Z,42.95
2018-03-02T02:18:21.431Z,50.97
2018-03-02T02:20:47.661Z,52.10
2018-03-02T02:23:13.838Z,40.95
2018-03-02T02:25:40.331Z,44.80
2018-03-02T02:28:06.582Z,41.88
2018-03-02T02:30:32.808Z,48.53
2018-03-02T02:32:59.682Z,43.92
2018-03-02T02:35:25.875Z,57.83
2018-03-02T02:37:52.840Z,47.72
2018-03-02T02:40:20.765Z,45.30
2018-03-02T02:42:46.964Z,43.20
2018-03-02T02:45:14.073Z,42.70
2018-03-02T02:47:41.584Z,36.78
2018-03-02T02:50:07.746Z,47.25
2018-03-02T02:52:34.672Z,45.30
2018-03-02T02:55:00.864Z,51.28
2018-03-02T02:57:27.097Z,47.20
2018-03-02T02:59:53.333Z,43.13
2018-03-02T03:02:19.566Z,51.92
2018-03-02T03:04:45.777Z,48.45
2018-03-02T03:07:12.057Z,46.33
2018-03-02T03:09:38.276Z,45.67
2018-03-02T03:12:04.479Z,48.70
2018-03-02T03:14:30.679Z,43.38
2018-03-02T03:16:56.927Z,44.97
2018-03-02T03:19:23.204Z,50.00
2018-03-02T03:21:49.396Z,45.28
2018-03-02T03:24:15.610Z,48.38
2018-03-02T03:26:41.791Z,45.33
2018-03-02T03:29:08.779Z,48.25
2018-03-02T03:31:34.985Z,51.20
2018-03-02T03:34:01.242Z,44.67
2018-03-02T03:36:27.693Z,48.83
2018-03-02T03:38:53.943Z,45.08
2018-03-02T03:41:20.189Z,45.12
2018-03-02T03:43:47.198Z,45.80
2018-03-02T03:46:14.355Z,43.65
2018-03-02T03:48:40.634Z,55.90
2018-03-02T03:51:07.532Z,50.00
2018-03-02T03:53:33.723Z,48.60
2018-03-02T03:55:59.924Z,42.78
2018-03-02T03:58:26.843Z,54.80
2018-03-02T04:00:53.032Z,45.38
2018-03-02T04:03:19.184Z,52.25
2018-03-02T04:05:45.439Z,49.05
2018-03-02T04:08:11.608Z,49.28
2018-03-02T04:10:37.828Z,46.72
2018-03-02T04:13:04.002Z,46.33
2018-03-02T04:15:30.212Z,44.45
2018-03-02T04:17:56.402Z,47.67
2018-03-02T04:20:23.348Z,41.75
2018-03-02T04:22:50.291Z,42.92
2018-03-02T04:25:17.263Z,54.03
2018-03-02T04:27:43.439Z,45.92
2018-03-02T04:30:09.682Z,50.47
2018-03-02T04:32:36.588Z,42.60
2018-03-02T04:35:02.802Z,50.40
2018-03-02T04:37:29.002Z,48.75
2018-03-02T04:39:55.909Z,42.15
2018-03-02T04:42:22.168Z,50.90
2018-03-02T04:44:49.123Z,44.28
2018-03-02T04:47:16.033Z,49.63
2018-03-02T04:49:42.235Z,41.97
2018-03-02T04:52:08.825Z,45.17
2018-03-02T04:54:35.810Z,50.65
2018-03-02T04:57:01.992Z,42.22
2018-03-02T04:59:28.929Z,44.67
2018-03-02T05:01:55.133Z,52.90
2018-03-02T05:04:21.379Z,53.70
2018-03-02T05:06:47.568Z,49.42
2018-03-02T05:09:13.728Z,47.75
2018-03-02T05:11:39.940Z,51.45
2018-03-02T05:14:06.122Z,46.75
2018-03-02T05:16:33.073Z,54.40
2018-03-02T05:18:59.993Z,52.40
2018-03-02T05:21:26.157Z,49.95
2018-03-02T05:23:52.365Z,48.65
2018-03-02T05:26:19.253Z,50.47
2018-03-02T05:28:45.542Z,52.65
2018-03-02T05:31:12.482Z,37.92
2018-03-02T05:33:39.429Z,43.95
2018-03-02T05:36:06.396Z,49.50
2018-03-02T05:38:32.588Z,44.05
2018-03-02T05:40:58.794Z,54.33
2018-03-02T05:43:25.032Z,51.45
2018-03-02T05:45:51.239Z,56.45
2018-03-02T05:48:17.560Z,49.55
2018-03-02T05:50:43.830Z,47.90
2018-03-02T05:53:10.899Z,48.63
2018-03-02T05:55:38.095Z,42.62
2018-03-02T05:58:04.328Z,52.05
2018-03-02T06:00:30.582Z,46.22
2018-03-02T06:02:57.060Z,51.45
2018-03-02T06:05:23.374Z,42.33
2018-03-02T06:07:50.362Z,47.08
2018-03-02T06:10:16.749Z,44.63
2018-03-02T06:12:43.958Z,48.05
2018-03-02T06:15:10.168Z,46.47
2018-03-02T06:17:36.430Z,49.25
2018-03-02T06:20:02.794Z,48.05
2018-03-02T06:22:29.852Z,50.22
2018-03-02T06:24:56.617Z,49.95
2018-03-02T06:27:22.844Z,48.47
2018-03-02T06:29:49.288Z,51.22
2018-03-02T06:32:15.532Z,46.42
2018-03-02T06:34:41.893Z,49.10
2018-03-02T06:37:08.077Z,48.47
2018-03-02T06:39:35.348Z,48.92
2018-03-02T06:42:01.647Z,49.25
2018-03-02T06:44:28.884Z,43.85
2018-03-02T06:46:55.979Z,46.70
2018-03-02T06:49:22.192Z,49.65
2018-03-02T06:51:48.459Z,54.33
2018-03-02T06:54:14.706Z,55.55
2018-03-02T06:56:40.915Z,43.13
2018-03-02T06:59:07.184Z,44.78
2018-03-02T07:01:33.417Z,50.75
2018-03-02T07:04:00.759Z,40.35
2018-03-02T07:06:27.702Z,49.22
2018-03-02T07:08:55.215Z,50.15
2018-03-02T07:11:21.443Z,51.83
2018-03-02T07:13:47.723Z,45.45
2018-03-02T07:16:14.810Z,51.37
2018-03-02T07:18:41.101Z,53.78
2018-03-02T07:21:08.047Z,50.58
2018-03-02T07:23:34.995Z,43.70
2018-03-02T07:26:02.000Z,49.92
2018-03-02T07:28:28.257Z,49.70
2018-03-02T07:30:54.452Z,51.60
2018-03-02T07:33:20.778Z,49.47
2018-03-02T07:35:46.985Z,53.08
2018-03-02T07:38:13.249Z,60.15
2018-03-02T07:40:39.581Z,44.00
2018-03-02T07:43:05.848Z,46.30
2018-03-02T07:45:32.890Z,51.92
2018-03-02T07:47:59.085Z,51.28
2018-03-02T07:50:25.434Z,47.50
2018-03-02T07:52:52.429Z,52.25
2018-03-02T07:55:18.775Z,50.38
2018-03-02T07:57:45.042Z,50.12
2018-03-02T08:00:11.328Z,49.20
2018-03-02T08:02:37.546Z,52.85
2018-03-02T08:05:03.776Z,55.83
2018-03-02T08:07:30.090Z,48.13
2018-03-02T08:09:56.358Z,53.60
2018-03-02T08:12:22.638Z,52.25
2018-03-02T08:14:48.874Z,49.60
2018-03-02T08:17:15.837Z,55.47
2018-03-02T08:19:42.261Z,48.38
2018-03-02T08:22:09.234Z,54.47
2018-03-02T08:24:36.223Z,60.58
2018-03-02T08:27:02.448Z,44.50
2018-03-02T08:29:29.595Z,44.72
2018-03-02T08:31:55.827Z,46.08
2018-03-02T08:34:22.097Z,50.90
2018-03-02T08:36:49.419Z,65.43
2018-03-02T08:39:15.644Z,47.35
2018-03-02T08:41:41.820Z,54.50
2018-03-02T08:44:08.121Z,48.20
2018-03-02T08:46:35.362Z,54.63
2018-03-02T08:49:01.609Z,52.78
2018-03-02T08:51:28.580Z,49.70
2018-03-02T08:53:54.788Z,60.25
2018-03-02T08:56:21.787Z,52.38
2018-03-02T08:58:48.841Z,50.78
2018-03-02T09:01:15.117Z,48.80
2018-03-02T09:03:42.072Z,55.30
2018-03-02T09:06:08.325Z,53.22
2018-03-02T09:08:34.571Z,58.58
2018-03-02T09:11:00.815Z,60.50
2018-03-02T09:13:27.932Z,58.83
2018-03-02T09:15:54.199Z,56.70
2018-03-02T09:18:21.216Z,52.85
2018-03-02T09:20:47.501Z,58.35
2018-03-02T09:23:14.470Z,40.42
2018-03-02T09:25:40.793Z,44.03
2018-03-02T09:28:07.718Z,55.40
2018-03-02T09:30:33.938Z,49.92
2018-03-02T09:33:00.160Z,52.00
2018-03-02T09:35:26.369Z,61.05
2018-03-02T09:37:52.630Z,61.10
2018-03-02T09:40:19.601Z,53.13
2018-03-02T09:42:46.568Z,58.28
2018-03-02T09:45:12.779Z,58.38
2018-03-02T09:47:39.750Z,51.70
2018-03-02T09:50:06.063Z,61.22
2018-03-02T09:52:32.320Z,57.38
2018-03-02T09:54:58.481Z,54.88
2018-03-02T09:57:24.701Z,54.95
2018-03-02T09:59:51.054Z,58.05
2018-03-02T10:02:17.270Z,54.75
2018-03-02T10:04:43.528Z,61.58
2018-03-02T10:07:10.484Z,49.92
2018-03-02T10:09:36.734Z,50.17
2018-03-02T10:12:02.986Z,55.25
2018-03-02T10:14:29.211Z,57.38
2018-03-02T10:16:55.404Z,50.92
2018-03-02T10:19:21.623Z,55.38
2018-03-02T10:21:48.810Z,54.58
2018-03-02T10:24:15.045Z,55.78
2018-03-02T10:26:41.686Z,57.45
2018-03-02T10:29:07.907Z,55.72
2018-03-02T10:31:34.461Z,56.10
2018-03-02T10:34:00.679Z,63.63
2018-03-02T10:36:26.932Z,54.63
2018-03-02T10:38:53.142Z,57.83
2018-03-02T10:41:19.338Z,48.28
2018-03-02T10:43:45.548Z,49.28
2018-03-02T10:46:11.777Z,54.13
2018-03-02T10:48:38.844Z,49.42
2018-03-02T10:51:05.052Z,61.30
2018-03-02T10:53:32.089Z,53.38
2018-03-02T10:55:58.295Z,57.95
2018-03-02T10:58:24.586Z,57.47
2018-03-02T11:00:50.871Z,58.17
2018-03-02T11:03:22.622Z,55.17
2018-03-02T11:05:49.632Z,61.05
2018-03-02T11:08:15.858Z,54.47
2018-03-02T11:10:42.113Z,65.25
2018-03-02T11:13:08.622Z,59.80
2018-03-02T11:15:34.840Z,54.67
2018-03-02T11:18:01.415Z,54.03
2018-03-02T11:20:28.142Z,56.50
2018-03-02T11:22:55.792Z,52.15
2018-03-02T11:25:22.082Z,50.72
2018-03-02T11:27:49.094Z,55.22
2018-03-02T11:30:15.346Z,53.50
2018-03-02T11:32:41.543Z,53.75
2018-03-02T11:35:07.766Z,54.53
2018-03-02T11:37:34.002Z,49.78
2018-03-02T11:40:00.223Z,55.63
2018-03-02T11:42:26.469Z,56.22
2018-03-02T11:44:52.668Z,55.90
2018-03-02T11:47:18.881Z,55.60
2018-03-02T11:49:47.707Z,55.47
2018-03-02T11:52:13.938Z,63.53
2018-03-02T11:54:40.202Z,60.63
2018-03-02T11:57:07.174Z,62.80
2018-03-02T11:59:34.116Z,52.20
2018-03-02T12:02:01.070Z,69.35
2018-03-02T12:04:27.262Z,64.10
2018-03-02T12:06:53.536Z,56.45
2018-03-02T12:09:34.790Z,53.17
2018-03-02T12:12:01.770Z,63.38
2018-03-02T12:14:27.976Z,55.15
2018-03-02T12:16:54.987Z,56.10
2018-03-02T12:19:21.250Z,66.53
2018-03-02T12:21:47.539Z,57.55
2018-03-02T12:24:13.728Z,64.03
2018-03-02T12:26:39.958Z,54.58
2018-03-02T12:29:06.234Z,53.97
2018-03-02T12:31:32.416Z,55.35
2018-03-02T12:33:58.638Z,61.20
2018-03-02T12:36:24.851Z,60.72
2018-03-02T12:38:51.924Z,57.80
2018-03-02T12:41:18.871Z,66.37
2018-03-02T12:43:45.681Z,58.25
2018-03-02T12:46:12.983Z,67.47
2018-03-02T12:48:39.168Z,51.58
2018-03-02T12:51:06.501Z,64.80
2018-03-02T12:53:33.101Z,51.22
2018-03-02T12:55:59.665Z,50.00
2018-03-02T12:58:26.200Z,53.95
2018-03-02T13:00:52.423Z,54.85
2018-03-02T13:03:19.881Z,54.40
2018-03-02T13:05:46.130Z,51.05
2018-03-02T13:08:14.266Z,58.90
2018-03-02T13:10:40.558Z,48.30
2018-03-02T13:13:07.553Z,59.65
2018-03-02T13:15:33.792Z,53.92
2018-03-02T13:18:00.926Z,56.88
2018-03-02T13:20:27.179Z,52.78
2018-03-02T13:22:53.426Z,53.53
2018-03-02T13:25:19.668Z,56.40
2018-03-02T13:27:59.106Z,51.60
2018-03-02T13:30:26.084Z,56.17
2018-03-02T13:33:04.708Z,57.92
2018-03-02T13:35:31.054Z,43.08
2018-03-02T13:37:57.308Z,45.53
2018-03-02T13:40:35.769Z,50.75
2018-03-02T13:43:02.059Z,54.25
2018-03-02T13:45:28.322Z,49.90
2018-03-02T13:50:58.562Z,60.67
2018-03-02T13:53:24.898Z,59.78
2018-03-02T13:55:51.114Z,59.10
2018-03-02T13:58:18.112Z,60.50
2018-03-02T14:00:44.357Z,62.95
2018-03-02T14:03:22.975Z,58.97
2018-03-02T14:05:49.212Z,60.45
2018-03-02T14:08:15.430Z,58.97
2018-03-02T14:10:41.655Z,57.50
2018-03-02T14:13:07.883Z,63.92
2018-03-02T14:15:34.093Z,58.63
2018-03-02T14:18:00.324Z,60.25
2018-03-02T14:20:26.951Z,39.58
2018-03-02T14:22:53.195Z,47.13
2018-03-02T14:25:19.746Z,56.60
2018-03-02T14:27:45.949Z,57.78
2018-03-02T14:30:12.137Z,54.60
2018-03-02T14:32:39.179Z,56.25
2018-03-02T14:35:06.144Z,59.70
2018-03-02T14:37:33.811Z,62.85
2018-03-02T14:40:00.453Z,55.85
2018-03-02T14:42:28.435Z,57.83
2018-03-02T14:44:54.696Z,62.10
2018-03-02T14:47:20.974Z,56.83
2018-03-02T14:49:47.179Z,68.43
2018-03-02T14:52:13.385Z,57.40
2018-03-02T14:54:39.702Z,61.80
2018-03-02T14:57:06.031Z,62.25
2018-03-02T14:59:32.356Z,61.20
2018-03-02T15:01:58.610Z,65.25
2018-03-02T15:04:24.851Z,65.80
2018-03-02T15:06:51.249Z,58.83
2018-03-02T15:09:19.618Z,66.25
2018-03-02T15:11:45.840Z,66.25
2018-03-02T15:14:12.295Z,67.28
2018-03-02T15:16:38.601Z,64.62
2018-03-02T15:19:05.601Z,61.53
2018-03-02T15:21:31.962Z,58.63
2018-03-02T15:23:58.185Z,69.78
2018-03-02T15:26:24.500Z,63.60
2018-03-02T15:28:50.835Z,57.33
2018-03-02T15:31:17.051Z,59.92
2018-03-02T15:33:43.353Z,62.60
2018-03-02T15:36:09.624Z,61.13
2018-03-02T15:38:35.822Z,56.03
2018-03-02T15:41:02.463Z,57.97
2018-03-02T15:43:29.141Z,59.88
2018-03-02T15:45:55.784Z,60.70
2018-03-02T15:48:22.377Z,71.00
2018-03-02T15:50:49.380Z,60.38
2018-03-02T15:53:16.324Z,59.22
2018-03-02T15:55:44.359Z,62.00
2018-03-02T15:58:10.573Z,58.80
2018-03-02T16:00:37.041Z,56.55
2018-03-02T16:03:03.276Z,61.85
2018-03-02T16:05:29.474Z,61.80
2018-03-02T16:07:55.675Z,64.18
2018-03-02T16:10:22.001Z,60.75
2018-03-02T16:12:48.218Z,61.55
2018-03-02T16:15:14.788Z,59.80
2018-03-02T16:17:40.999Z,63.13
2018-03-02T16:20:07.242Z,57.88
2018-03-02T16:22:33.448Z,51.05
2018-03-02T16:24:59.672Z,60.72
2018-03-02T16:27:26.609Z,61.47
2018-03-02T16:29:53.624Z,69.93
2018-03-02T16:32:19.852Z,57.22
2018-03-02T16:34:46.055Z,59.13
2018-03-02T16:37:12.298Z,54.88
2018-03-02T16:39:38.589Z,57.35
2018-03-02T16:42:04.796Z,56.37
2018-03-02T16:44:31.788Z,53.55
2018-03-02T16:46:58.028Z,63.45
2018-03-02T16:49:24.348Z,50.63
2018-03-02T16:51:50.563Z,48.10
2018-03-02T16:54:17.721Z,60.40
2018-03-02T16:56:44.043Z,59.20
2018-03-02T16:59:10.210Z,69.53
2018-03-02T17:01:36.449Z,50.28
2018-03-02T17:04:02.722Z,57.50
2018-03-02T17:06:29.152Z,55.90
2018-03-02T17:08:55.380Z,55.45
2018-03-02T17:11:21.649Z,53.25
2018-03-02T17:13:48.854Z,57.92
2018-03-02T17:16:15.807Z,58.08
2018-03-02T17:18:42.035Z,57.53
2018-03-02T17:21:08.996Z,51.55
2018-03-02T17:23:35.224Z,58.78
2018-03-02T17:26:01.469Z,60.97
2018-03-02T17:28:27.820Z,55.53
2018-03-02T17:30:54.071Z,51.67
2018-03-02T17:33:20.371Z,61.97
2018-03-02T17:35:46.643Z,59.28
2018-03-02T17:38:13.669Z,68.43
2018-03-02T17:40:39.882Z,58.40
2018-03-02T17:43:06.102Z,57.00
2018-03-02T17:45:32.365Z,60.58
2018-03-02T17:47:58.543Z,63.05
2018-03-02T17:50:24.798Z,52.78
2018-03-02T17:52:51.065Z,62.65
2018-03-02T17:55:18.498Z,56.67
2018-03-02T17:57:44.754Z,62.97
2018-03-02T18:00:11.849Z,65.05
2018-03-02T18:02:38.772Z,57.55
2018-03-02T18:05:04.980Z,64.40
2018-03-02T18:07:32.120Z,66.47
2018-03-02T18:09:58.782Z,67.20
2018-03-02T18:12:25.815Z,66.00
2018-03-02T18:14:53.339Z,61.78
2018-03-02T18:17:19.613Z,58.03
2018-03-02T18:19:46.587Z,55.20
2018-03-02T18:22:12.851Z,61.83
2018-03-02T18:24:39.158Z,59.95
2018-03-02T18:27:05.439Z,61.72
2018-03-02T18:29:32.811Z,61.45
2018-03-02T18:31:59.239Z,55.55
2018-03-02T18:34:26.329Z,70.18
2018-03-02T18:36:52.647Z,61.35
2018-03-02T18:39:18.948Z,55.92
2018-03-02T18:41:45.893Z,62.90
2018-03-02T18:44:13.820Z,58.40
2018-03-02T18:46:40.960Z,62.85
2018-03-02T18:49:07.218Z,55.83
2018-03-02T18:51:33.428Z,59.50
2018-03-02T18:53:59.743Z,56.10
2018-03-02T18:56:25.958Z,62.78
2018-03-02T18:58:52.259Z,62.85
2018-03-02T19:01:19.223Z,64.47
2018-03-02T19:03:45.437Z,60.90
2018-03-02T19:06:12.381Z,64.80
2018-03-02T19:08:39.385Z,62.50
2018-03-02T19:11:05.660Z,60.38
2018-03-02T19:13:31.909Z,64.57
2018-03-02T19:15:58.148Z,62.40
2018-03-02T19:18:24.376Z,69.35
2018-03-02T19:20:50.681Z,63.67
2018-03-02T19:23:17.735Z,68.82
2018-03-02T19:25:44.611Z,71.32
2018-03-02T19:28:10.802Z,65.32
2018-03-02T19:30:37.859Z,69.35
2018-03-02T19:33:04.868Z,64.97
2018-03-02T19:35:31.126Z,58.08
2018-03-02T19:37:58.071Z,67.87
2018-03-02T19:40:25.073Z,69.05
2018-03-02T19:42:51.490Z,64.28
2018-03-02T19:45:17.820Z,65.90
2018-03-02T19:47:44.212Z,56.42
2018-03-02T19:50:12.013Z,64.93
2018-03-02T19:52:39.366Z,66.37
2018-03-02T19:55:05.670Z,67.28
2018-03-02T19:57:32.666Z,57.67
2018-03-02T19:59:58.956Z,64.75
2018-03-02T20:02:25.197Z,68.90
2018-03-02T20:04:51.440Z,67.12
2018-03-02T20:07:17.687Z,74.72
2018-03-02T20:09:43.966Z,73.40
2018-03-02T20:12:10.964Z,74.03
2018-03-02T20:14:37.283Z,77.93
2018-03-02T20:17:03.522Z,84.25
2018-03-02T20:19:29.774Z,81.03
2018-03-02T20:21:56.868Z,82.47
2018-03-02T20:24:23.165Z,93.05
2018-03-02T20:26:49.459Z,88.85
2018-03-02T20:29:15.766Z,94.53
2018-03-02T20:31:42.023Z,90.20
2018-03-02T20:34:09.084Z,109.95
2018-03-02T20:36:35.327Z,96.05
2018-03-02T20:39:01.592Z,102.70
2018-03-02T20:41:28.640Z,93.50
2018-03-02T20:43:54.868Z,88.50
2018-03-02T20:46:22.012Z,96.22
2018-03-02T20:48:48.980Z,109.43
2018-03-02T20:51:15.212Z,98.85
2018-03-02T20:53:41.506Z,108.57
2018-03-02T20:56:08.449Z,98.90
2018-03-02T20:58:34.814Z,104.32
2018-03-02T21:01:01.067Z,103.45
2018-03-02T21:03:27.980Z,96.20
2018-03-02T21:05:54.722Z,94.62
2018-03-02T21:08:21.058Z,94.55
2018-03-02T21:10:47.269Z,104.12
2018-03-02T21:13:14.495Z,105.87
2018-03-02T21:15:41.836Z,109.63
2018-03-02T21:18:08.836Z,101.93
2018-03-02T21:20:35.327Z,106.43
2018-03-02T21:23:01.765Z,107.60
2018-03-02T21:25:29.764Z,97.85
2018-03-02T21:27:56.164Z,97.00
2018-03-02T21:30:22.429Z,97.62
2018-03-02T21:32:49.439Z,101.32
2018-03-02T21:35:15.711Z,110.40
2018-03-02T21:37:42.837Z,99.13
2018-03-02T21:40:09.087Z,108.75
2018-03-02T21:42:36.146Z,111.18
2018-03-02T21:45:02.452Z,94.97
2018-03-02T21:47:28.891Z,105.60
2018-03-02T21:49:55.878Z,117.60
2018-03-02T21:52:22.117Z,111.30
2018-03-02T21:54:49.910Z,99.00
2018-03-02T21:57:16.185Z,105.10
2018-03-02T21:59:42.420Z,96.55
2018-03-02T22:02:08.640Z,109.32
2018-03-02T22:04:35.596Z,101.07
2018-03-02T22:07:01.816Z,100.00
2018-03-02T22:09:28.862Z,104.00
2018-03-02T22:11:55.825Z,106.45
2018-03-02T22:14:22.171Z,105.03
2018-03-02T22:16:48.397Z,106.03
2018-03-02T22:19:14.636Z,114.47
2018-03-02T22:21:41.031Z,114.12
2018-03-02T22:24:08.036Z,107.97
2018-03-02T22:26:34.226Z,100.05
2018-03-02T22:29:00.452Z,120.82
2018-03-02T22:31:26.685Z,111.50
2018-03-02T22:33:52.956Z,106.90
2018-03-02T22:36:19.219Z,102.45
2018-03-02T22:38:47.183Z,107.37
2018-03-02T22:41:14.246Z,106.43
2018-03-02T22:43:41.583Z,118.47
2018-03-02T22:46:07.919Z,111.47
2018-03-02T22:48:35.479Z,110.95
2018-03-02T22:51:02.447Z,110.20
2018-03-02T22:53:28.968Z,112.60
2018-03-02T22:55:55.448Z,109.07
2018-03-02T22:58:21.866Z,106.18
2018-03-02T23:00:48.464Z,114.37
2018-03-02T23:03:15.465Z,118.55
2018-03-02T23:05:41.672Z,100.38
2018-03-02T23:08:08.737Z,104.78
2018-03-02T23:10:35.718Z,119.05
2018-03-02T23:13:02.106Z,102.72
2018-03-02T23:15:28.977Z,114.05
2018-03-02T23:17:55.224Z,120.37
2018-03-02T23:20:21.437Z,98.62
2018-03-02T23:22:47.912Z,113.47
2018-03-02T23:25:14.912Z,111.53
2018-03-02T23:27:41.234Z,122.95
2018-03-02T23:30:08.719Z,124.30
2018-03-02T23:32:35.732Z,108.65
2018-03-02T23:35:02.068Z,114.40
2018-03-02T23:37:28.250Z,114.05
2018-03-02T23:39:55.230Z,104.95
2018-03-02T23:42:21.492Z,128.85
2018-03-02T23:44:47.708Z,117.75
2018-03-02T23:47:13.914Z,115.47
2018-03-02T23:49:40.910Z,114.62
2018-03-02T23:52:07.833Z,114.65
2018-03-02T23:54:34.052Z,116.90
2018-03-02T23:57:00.231Z,115.10
2018-03-02T23:59:27.210Z,110.88
